sensor_id;sensor_type;location;lat;lon;timestamp;pressure;altitude;pressure_sealevel;temperature
19102;BMP280;9683;49.028;12.064;2022-09-09T00:00:58;97020.78;;;18.58
19102;BMP280;9683;49.028;12.064;2022-09-09T00:03:27;97029.97;;;18.57
19102;BMP280;9683;49.028;12.064;2022-09-09T00:06:03;97022.91;;;18.61
19102;BMP280;9683;49.028;12.064;2022-09-09T00:08:41;97021.84;;;18.62
19102;BMP280;9683;49.028;12.064;2022-09-09T00:11:13;97019.69;;;18.64
19102;BMP280;9683;49.028;12.064;2022-09-09T00:13:47;97017.75;;;18.65
19102;BMP280;9683;49.028;12.064;2022-09-09T00:16:19;97024.28;;;18.64
19102;BMP280;9683;49.028;12.064;2022-09-09T00:18:54;97016.69;;;18.66
19102;BMP280;9683;49.028;12.064;2022-09-09T00:21:23;97011.28;;;18.66
19102;BMP280;9683;49.028;12.064;2022-09-09T00:23:53;97009.94;;;18.68
19102;BMP280;9683;49.028;12.064;2022-09-09T00:26:23;97008.56;;;18.71
19102;BMP280;9683;49.028;12.064;2022-09-09T00:28:59;97002.94;;;18.67
19102;BMP280;9683;49.028;12.064;2022-09-09T00:31:29;97005.38;;;18.64
19102;BMP280;9683;49.028;12.064;2022-09-09T00:34:00;96998.91;;;18.65
19102;BMP280;9683;49.028;12.064;2022-09-09T00:36:30;97006.47;;;18.63
19102;BMP280;9683;49.028;12.064;2022-09-09T00:39:01;97020.53;;;18.60
19102;BMP280;9683;49.028;12.064;2022-09-09T00:41:38;97008.13;;;18.59
19102;BMP280;9683;49.028;12.064;2022-09-09T00:44:18;97008.63;;;18.61
19102;BMP280;9683;49.028;12.064;2022-09-09T00:46:59;97011.06;;;18.62
19102;BMP280;9683;49.028;12.064;2022-09-09T00:49:43;97013.75;;;18.62
19102;BMP280;9683;49.028;12.064;2022-09-09T00:52:22;97009.16;;;18.63
19102;BMP280;9683;49.028;12.064;2022-09-09T00:54:57;97014.84;;;18.61
19102;BMP280;9683;49.028;12.064;2022-09-09T00:57:28;97007.03;;;18.60
19102;BMP280;9683;49.028;12.064;2022-09-09T01:00:15;97007.56;;;18.62
19102;BMP280;9683;49.028;12.064;2022-09-09T01:02:52;97019.16;;;18.57
19102;BMP280;9683;49.028;12.064;2022-09-09T01:05:28;97027.00;;;18.54
19102;BMP280;9683;49.028;12.064;2022-09-09T01:07:58;97024.84;;;18.51
19102;BMP280;9683;49.028;12.064;2022-09-09T01:10:34;97017.31;;;18.53
19102;BMP280;9683;49.028;12.064;2022-09-09T01:13:04;97019.47;;;18.56
19102;BMP280;9683;49.028;12.064;2022-09-09T01:15:39;97021.59;;;18.59
19102;BMP280;9683;49.028;12.064;2022-09-09T01:18:10;97022.09;;;18.61
19102;BMP280;9683;49.028;12.064;2022-09-09T01:20:46;97023.72;;;18.62
19102;BMP280;9683;49.028;12.064;2022-09-09T01:23:33;97030.75;;;18.63
19102;BMP280;9683;49.028;12.064;2022-09-09T01:26:18;97021.28;;;18.65
19102;BMP280;9683;49.028;12.064;2022-09-09T01:28:49;97023.72;;;18.62
19102;BMP280;9683;49.028;12.064;2022-09-09T01:31:20;97017.53;;;18.61
19102;BMP280;9683;49.028;12.064;2022-09-09T01:33:48;97006.75;;;18.61
19102;BMP280;9683;49.028;12.064;2022-09-09T01:36:22;97008.09;;;18.64
19102;BMP280;9683;49.028;12.064;2022-09-09T01:38:49;97005.66;;;18.62
19102;BMP280;9683;49.028;12.064;2022-09-09T01:41:17;97009.13;;;18.68
19102;BMP280;9683;49.028;12.064;2022-09-09T01:43:43;96999.94;;;18.69
19102;BMP280;9683;49.028;12.064;2022-09-09T01:46:10;97000.75;;;18.69
19102;BMP280;9683;49.028;12.064;2022-09-09T01:48:38;97017.16;;;18.73
19102;BMP280;9683;49.028;12.064;2022-09-09T01:51:07;97006.66;;;18.76
19102;BMP280;9683;49.028;12.064;2022-09-09T01:53:34;97007.97;;;18.79
19102;BMP280;9683;49.028;12.064;2022-09-09T01:56:07;97010.34;;;18.86
19102;BMP280;9683;49.028;12.064;2022-09-09T01:58:51;97010.34;;;18.86
19102;BMP280;9683;49.028;12.064;2022-09-09T02:01:27;97008.25;;;18.77
19102;BMP280;9683;49.028;12.064;2022-09-09T02:03:57;97009.38;;;18.71
19102;BMP280;9683;49.028;12.064;2022-09-09T02:06:27;97009.16;;;18.63
19102;BMP280;9683;49.028;12.064;2022-09-09T02:08:56;97009.16;;;18.63
19102;BMP280;9683;49.028;12.064;2022-09-09T02:11:25;97017.56;;;18.56
19102;BMP280;9683;49.028;12.064;2022-09-09T02:13:57;97015.97;;;18.50
19102;BMP280;9683;49.028;12.064;2022-09-09T02:16:28;97023.25;;;18.50
19102;BMP280;9683;49.028;12.064;2022-09-09T02:19:01;97030.50;;;18.49
19102;BMP280;9683;49.028;12.064;2022-09-09T02:21:31;97023.25;;;18.50
19102;BMP280;9683;49.028;12.064;2022-09-09T02:24:02;97030.00;;;18.47
19102;BMP280;9683;49.028;12.064;2022-09-09T02:26:31;97025.44;;;18.43
19102;BMP280;9683;49.028;12.064;2022-09-09T02:29:01;97017.06;;;18.44
19102;BMP280;9683;49.028;12.064;2022-09-09T02:31:30;97017.88;;;18.45
19102;BMP280;9683;49.028;12.064;2022-09-09T02:34:00;97021.63;;;18.49
19102;BMP280;9683;49.028;12.064;2022-09-09T02:36:31;97026.22;;;18.53
19102;BMP280;9683;49.028;12.064;2022-09-09T02:38:59;97023.78;;;18.52
19102;BMP280;9683;49.028;12.064;2022-09-09T02:41:31;97016.78;;;18.46
19102;BMP280;9683;49.028;12.064;2022-09-09T02:43:58;97009.56;;;18.36
19102;BMP280;9683;49.028;12.064;2022-09-09T02:46:36;97006.13;;;18.30
19102;BMP280;9683;49.028;12.064;2022-09-09T02:49:09;97002.88;;;18.28
19102;BMP280;9683;49.028;12.064;2022-09-09T02:51:40;97006.41;;;18.24
19102;BMP280;9683;49.028;12.064;2022-09-09T02:54:17;97010.19;;;18.23
19102;BMP280;9683;49.028;12.064;2022-09-09T02:56:49;97008.03;;;18.20
19102;BMP280;9683;49.028;12.064;2022-09-09T02:59:18;97010.47;;;18.21
19102;BMP280;9683;49.028;12.064;2022-09-09T03:01:46;97010.19;;;18.23
19102;BMP280;9683;49.028;12.064;2022-09-09T03:04:12;97003.97;;;18.22
19102;BMP280;9683;49.028;12.064;2022-09-09T03:06:39;97007.47;;;18.23
19102;BMP280;9683;49.028;12.064;2022-09-09T03:09:06;96999.41;;;18.23
19102;BMP280;9683;49.028;12.064;2022-09-09T03:11:35;97002.41;;;18.21
19102;BMP280;9683;49.028;12.064;2022-09-09T03:14:02;97004.78;;;18.23
19102;BMP280;9683;49.028;12.064;2022-09-09T03:16:29;97001.34;;;18.17
19102;BMP280;9683;49.028;12.064;2022-09-09T03:18:57;97000.53;;;18.12
19102;BMP280;9683;49.028;12.064;2022-09-09T03:21:24;97001.13;;;18.04
19102;BMP280;9683;49.028;12.064;2022-09-09T03:23:50;97010.03;;;17.99
19102;BMP280;9683;49.028;12.064;2022-09-09T03:26:17;96999.28;;;17.89
19102;BMP280;9683;49.028;12.064;2022-09-09T03:28:44;97002.31;;;17.77
19102;BMP280;9683;49.028;12.064;2022-09-09T03:31:11;97010.97;;;17.64
19102;BMP280;9683;49.028;12.064;2022-09-09T03:33:38;97017.47;;;17.58
19102;BMP280;9683;49.028;12.064;2022-09-09T03:36:07;97013.38;;;17.66
19102;BMP280;9683;49.028;12.064;2022-09-09T03:38:42;97015.00;;;17.67
19102;BMP280;9683;49.028;12.064;2022-09-09T03:41:09;97018.53;;;17.62
19102;BMP280;9683;49.028;12.064;2022-09-09T03:43:35;97010.44;;;17.47
19102;BMP280;9683;49.028;12.064;2022-09-09T03:46:03;97003.44;;;17.51
19102;BMP280;9683;49.028;12.064;2022-09-09T03:48:30;97011.78;;;17.50
19102;BMP280;9683;49.028;12.064;2022-09-09T03:50:57;97002.09;;;17.43
19102;BMP280;9683;49.028;12.064;2022-09-09T03:53:28;97003.19;;;17.48
19102;BMP280;9683;49.028;12.064;2022-09-09T03:55:55;97005.06;;;17.52
19102;BMP280;9683;49.028;12.064;2022-09-09T03:58:24;97009.09;;;17.60
19102;BMP280;9683;49.028;12.064;2022-09-09T04:00:56;97008.81;;;17.71
19102;BMP280;9683;49.028;12.064;2022-09-09T04:03:24;96997.22;;;17.71
19102;BMP280;9683;49.028;12.064;2022-09-09T04:05:51;97010.44;;;17.62
19102;BMP280;9683;49.028;12.064;2022-09-09T04:08:18;97006.38;;;17.65
19102;BMP280;9683;49.028;12.064;2022-09-09T04:10:46;97007.44;;;17.74
19102;BMP280;9683;49.028;12.064;2022-09-09T04:13:13;97006.88;;;17.77
19102;BMP280;9683;49.028;12.064;2022-09-09T04:15:41;97003.38;;;17.81
19102;BMP280;9683;49.028;12.064;2022-09-09T04:18:08;97007.13;;;17.80
19102;BMP280;9683;49.028;12.064;2022-09-09T04:20:35;97005.25;;;17.81
19102;BMP280;9683;49.028;12.064;2022-09-09T04:23:04;97010.38;;;17.82
19102;BMP280;9683;49.028;12.064;2022-09-09T04:25:31;97007.69;;;17.82
19102;BMP280;9683;49.028;12.064;2022-09-09T04:28:01;97006.06;;;17.81
19102;BMP280;9683;49.028;12.064;2022-09-09T04:30:27;97010.88;;;17.90
19102;BMP280;9683;49.028;12.064;2022-09-09T04:32:54;97003.09;;;17.88
19102;BMP280;9683;49.028;12.064;2022-09-09T04:35:21;97004.41;;;17.96
19102;BMP280;9683;49.028;12.064;2022-09-09T04:37:48;97007.09;;;17.96
19102;BMP280;9683;49.028;12.064;2022-09-09T04:40:15;97007.09;;;17.96
19102;BMP280;9683;49.028;12.064;2022-09-09T04:42:41;97000.09;;;17.95
19102;BMP280;9683;49.028;12.064;2022-09-09T04:45:10;97001.69;;;18.01
19102;BMP280;9683;49.028;12.064;2022-09-09T04:47:38;96998.94;;;18.06
19102;BMP280;9683;49.028;12.064;2022-09-09T04:50:07;96995.44;;;18.10
19102;BMP280;9683;49.028;12.064;2022-09-09T04:52:34;96995.97;;;18.12
19102;BMP280;9683;49.028;12.064;2022-09-09T04:55:00;96992.19;;;18.13
19102;BMP280;9683;49.028;12.064;2022-09-09T04:57:27;96990.00;;;18.15
19102;BMP280;9683;49.028;12.064;2022-09-09T04:59:54;96990.81;;;18.16
19102;BMP280;9683;49.028;12.064;2022-09-09T05:02:22;96987.88;;;18.17
19102;BMP280;9683;49.028;12.064;2022-09-09T05:04:48;96987.06;;;18.17
19102;BMP280;9683;49.028;12.064;2022-09-09T05:07:15;96984.88;;;18.19
19102;BMP280;9683;49.028;12.064;2022-09-09T05:09:42;96995.63;;;18.24
19102;BMP280;9683;49.028;12.064;2022-09-09T05:12:10;96992.94;;;18.24
19102;BMP280;9683;49.028;12.064;2022-09-09T05:14:37;96990.81;;;18.21
19102;BMP280;9683;49.028;12.064;2022-09-09T05:17:04;96997.25;;;18.25
19102;BMP280;9683;49.028;12.064;2022-09-09T05:19:32;96998.53;;;18.32
19102;BMP280;9683;49.028;12.064;2022-09-09T05:21:59;97003.44;;;18.30
19102;BMP280;9683;49.028;12.064;2022-09-09T05:24:26;96998.28;;;18.34
19102;BMP280;9683;49.028;12.064;2022-09-09T05:26:53;97006.59;;;18.38
19102;BMP280;9683;49.028;12.064;2022-09-09T05:29:24;97007.66;;;18.42
19102;BMP280;9683;49.028;12.064;2022-09-09T05:31:50;97013.28;;;18.45
19102;BMP280;9683;49.028;12.064;2022-09-09T05:34:17;97022.16;;;18.51
19102;BMP280;9683;49.028;12.064;2022-09-09T05:36:46;97019.47;;;18.56
19102;BMP280;9683;49.028;12.064;2022-09-09T05:39:13;97024.03;;;18.50
19102;BMP280;9683;49.028;12.064;2022-09-09T05:41:39;97028.09;;;18.53
19102;BMP280;9683;49.028;12.064;2022-09-09T05:44:06;97039.91;;;18.62
19102;BMP280;9683;49.028;12.064;2022-09-09T05:46:33;97031.78;;;18.67
19102;BMP280;9683;49.028;12.064;2022-09-09T05:48:59;97035.53;;;18.71
19102;BMP280;9683;49.028;12.064;2022-09-09T05:51:27;97029.06;;;18.72
19102;BMP280;9683;49.028;12.064;2022-09-09T05:53:56;97032.25;;;18.74
19102;BMP280;9683;49.028;12.064;2022-09-09T05:56:25;97037.91;;;18.77
19102;BMP280;9683;49.028;12.064;2022-09-09T05:58:53;97042.75;;;18.81
19102;BMP280;9683;49.028;12.064;2022-09-09T06:01:22;97038.44;;;18.80
19102;BMP280;9683;49.028;12.064;2022-09-09T06:03:50;97032.78;;;18.81
19102;BMP280;9683;49.028;12.064;2022-09-09T06:06:18;97035.75;;;18.80
19102;BMP280;9683;49.028;12.064;2022-09-09T06:08:46;97036.00;;;18.78
19102;BMP280;9683;49.028;12.064;2022-09-09T06:11:16;97043.09;;;18.69
19102;BMP280;9683;49.028;12.064;2022-09-09T06:13:43;97043.97;;;18.59
19102;BMP280;9683;49.028;12.064;2022-09-09T06:16:11;97041.03;;;18.56
19102;BMP280;9683;49.028;12.064;2022-09-09T06:18:38;97035.09;;;18.49
19102;BMP280;9683;49.028;12.064;2022-09-09T06:21:06;97036.44;;;18.51
19102;BMP280;9683;49.028;12.064;2022-09-09T06:23:35;97034.84;;;18.55
19102;BMP280;9683;49.028;12.064;2022-09-09T06:26:04;97038.81;;;18.63
19102;BMP280;9683;49.028;12.064;2022-09-09T06:28:33;97040.38;;;18.69
19102;BMP280;9683;49.028;12.064;2022-09-09T06:31:00;97030.09;;;18.76
19102;BMP280;9683;49.028;12.064;2022-09-09T06:33:30;97043.81;;;18.85
19102;BMP280;9683;49.028;12.064;2022-09-09T06:35:57;97038.63;;;18.93
19102;BMP280;9683;49.028;12.064;2022-09-09T06:38:24;97048.22;;;19.04
19102;BMP280;9683;49.028;12.064;2022-09-09T06:40:52;97046.53;;;19.13
19102;BMP280;9683;49.028;12.064;2022-09-09T06:43:19;97043.50;;;19.20
19102;BMP280;9683;49.028;12.064;2022-09-09T06:45:54;97034.56;;;19.24
19102;BMP280;9683;49.028;12.064;2022-09-09T06:48:21;97033.75;;;19.24
19102;BMP280;9683;49.028;12.064;2022-09-09T06:50:48;97036.44;;;19.24
19102;BMP280;9683;49.028;12.064;2022-09-09T06:53:17;97044.53;;;19.24
19102;BMP280;9683;49.028;12.064;2022-09-09T06:55:44;97039.69;;;19.26
19102;BMP280;9683;49.028;12.064;2022-09-09T06:58:11;97043.19;;;19.27
19102;BMP280;9683;49.028;12.064;2022-09-09T07:00:38;97043.94;;;19.32
19102;BMP280;9683;49.028;12.064;2022-09-09T07:03:06;97037.66;;;19.42
19102;BMP280;9683;49.028;12.064;2022-09-09T07:05:33;97040.31;;;19.47
19102;BMP280;9683;49.028;12.064;2022-09-09T07:07:59;97053.28;;;19.45
19102;BMP280;9683;49.028;12.064;2022-09-09T07:10:26;97063.53;;;19.48
19102;BMP280;9683;49.028;12.064;2022-09-09T07:12:52;97058.06;;;19.53
19102;BMP280;9683;49.028;12.064;2022-09-09T07:15:20;97058.56;;;19.60
19102;BMP280;9683;49.028;12.064;2022-09-09T07:17:46;97057.94;;;19.68
19102;BMP280;9683;49.028;12.064;2022-09-09T07:20:15;97061.84;;;19.81
19102;BMP280;9683;49.028;12.064;2022-09-09T07:22:42;97065.25;;;19.91
19102;BMP280;9683;49.028;12.064;2022-09-09T07:25:09;97058.13;;;20.00
19102;BMP280;9683;49.028;12.064;2022-09-09T07:27:35;97059.09;;;20.09
19102;BMP280;9683;49.028;12.064;2022-09-09T07:30:02;97062.78;;;20.19
19102;BMP280;9683;49.028;12.064;2022-09-09T07:32:29;97072.41;;;20.25
19102;BMP280;9683;49.028;12.064;2022-09-09T07:34:56;97070.75;;;20.29
19102;BMP280;9683;49.028;12.064;2022-09-09T07:37:25;97087.25;;;20.32
19102;BMP280;9683;49.028;12.064;2022-09-09T07:39:51;97090.22;;;20.31
19102;BMP280;9683;49.028;12.064;2022-09-09T07:42:18;97096.47;;;20.26
19102;BMP280;9683;49.028;12.064;2022-09-09T07:44:45;97098.72;;;20.19
19102;BMP280;9683;49.028;12.064;2022-09-09T07:47:11;97104.47;;;20.12
19102;BMP280;9683;49.028;12.064;2022-09-09T07:49:38;97106.97;;;20.04
19102;BMP280;9683;49.028;12.064;2022-09-09T07:52:06;97117.16;;;19.88
19102;BMP280;9683;49.028;12.064;2022-09-09T07:54:34;97118.88;;;19.79
19102;BMP280;9683;49.028;12.064;2022-09-09T07:57:00;97105.97;;;19.71
19102;BMP280;9683;49.028;12.064;2022-09-09T07:59:29;97101.78;;;19.60
19102;BMP280;9683;49.028;12.064;2022-09-09T08:01:55;97105.06;;;19.57
19102;BMP280;9683;49.028;12.064;2022-09-09T08:04:24;97118.28;;;19.53
19102;BMP280;9683;49.028;12.064;2022-09-09T08:06:52;97111.31;;;19.52
19102;BMP280;9683;49.028;12.064;2022-09-09T08:09:19;97107.03;;;19.41
19102;BMP280;9683;49.028;12.064;2022-09-09T08:11:48;97110.28;;;19.43
19102;BMP280;9683;49.028;12.064;2022-09-09T08:14:14;97109.72;;;19.41
19102;BMP280;9683;49.028;12.064;2022-09-09T08:16:43;97110.31;;;19.38
19102;BMP280;9683;49.028;12.064;2022-09-09T08:19:10;97108.91;;;19.41
19102;BMP280;9683;49.028;12.064;2022-09-09T08:21:39;97121.31;;;19.47
19102;BMP280;9683;49.028;12.064;2022-09-09T08:24:07;97122.94;;;19.48
19102;BMP280;9683;49.028;12.064;2022-09-09T08:26:36;97119.72;;;19.46
19102;BMP280;9683;49.028;12.064;2022-09-09T08:29:05;97115.13;;;19.41
19102;BMP280;9683;49.028;12.064;2022-09-09T08:31:34;97117.09;;;19.36
19102;BMP280;9683;49.028;12.064;2022-09-09T08:34:01;97112.22;;;19.33
19102;BMP280;9683;49.028;12.064;2022-09-09T08:36:30;97106.28;;;19.36
19102;BMP280;9683;49.028;12.064;2022-09-09T08:38:59;97112.47;;;19.36
19102;BMP280;9683;49.028;12.064;2022-09-09T08:41:50;97107.59;;;19.38
19102;BMP280;9683;49.028;12.064;2022-09-09T08:44:31;97115.13;;;19.41
19102;BMP280;9683;49.028;12.064;2022-09-09T08:47:07;97112.97;;;19.48
19102;BMP280;9683;49.028;12.064;2022-09-09T08:49:50;97127.16;;;19.59
19102;BMP280;9683;49.028;12.064;2022-09-09T08:52:22;97130.28;;;19.71
19102;BMP280;9683;49.028;12.064;2022-09-09T08:54:50;97128.31;;;19.82
19102;BMP280;9683;49.028;12.064;2022-09-09T08:57:20;97132.25;;;19.94
19102;BMP280;9683;49.028;12.064;2022-09-09T08:59:50;97125.09;;;20.03
19102;BMP280;9683;49.028;12.064;2022-09-09T09:02:21;97119.63;;;20.08
19102;BMP280;9683;49.028;12.064;2022-09-09T09:04:56;97112.28;;;20.14
19102;BMP280;9683;49.028;12.064;2022-09-09T09:07:33;97119.75;;;20.22
19102;BMP280;9683;49.028;12.064;2022-09-09T09:10:09;97117.25;;;20.31
19102;BMP280;9683;49.028;12.064;2022-09-09T09:12:41;97125.81;;;20.38
19102;BMP280;9683;49.028;12.064;2022-09-09T09:15:16;97118.75;;;20.42
19102;BMP280;9683;49.028;12.064;2022-09-09T09:17:44;97124.16;;;20.42
19102;BMP280;9683;49.028;12.064;2022-09-09T09:20:12;97117.66;;;20.43
19102;BMP280;9683;49.028;12.064;2022-09-09T09:22:45;97120.88;;;20.45
19102;BMP280;9683;49.028;12.064;2022-09-09T09:25:17;97116.78;;;20.47
19102;BMP280;9683;49.028;12.064;2022-09-09T09:27:49;97112.69;;;20.50
19102;BMP280;9683;49.028;12.064;2022-09-09T09:30:23;97113.22;;;20.52
19102;BMP280;9683;49.028;12.064;2022-09-09T09:32:52;97121.81;;;20.54
19102;BMP280;9683;49.028;12.064;2022-09-09T09:35:20;97117.22;;;20.54
19102;BMP280;9683;49.028;12.064;2022-09-09T09:37:47;97117.69;;;20.62
19102;BMP280;9683;49.028;12.064;2022-09-09T09:40:16;97110.31;;;20.67
19102;BMP280;9683;49.028;12.064;2022-09-09T09:42:52;97102.28;;;20.81
19102;BMP280;9683;49.028;12.064;2022-09-09T09:45:28;97099.44;;;20.91
19102;BMP280;9683;49.028;12.064;2022-09-09T09:48:01;97095.47;;;21.02
19102;BMP280;9683;49.028;12.064;2022-09-09T09:50:29;97096.50;;;21.06
19102;BMP280;9683;49.028;12.064;2022-09-09T09:52:58;97102.28;;;21.18
19102;BMP280;9683;49.028;12.064;2022-09-09T09:55:25;97103.50;;;21.26
19102;BMP280;9683;49.028;12.064;2022-09-09T09:57:53;97095.25;;;21.36
19102;BMP280;9683;49.028;12.064;2022-09-09T10:00:22;97089.94;;;21.44
19102;BMP280;9683;49.028;12.064;2022-09-09T10:02:50;97089.78;;;21.55
19102;BMP280;9683;49.028;12.064;2022-09-09T10:05:19;97095.63;;;21.62
19102;BMP280;9683;49.028;12.064;2022-09-09T10:07:47;97084.91;;;21.70
19102;BMP280;9683;49.028;12.064;2022-09-09T10:10:36;97083.31;;;21.83
19102;BMP280;9683;49.028;12.064;2022-09-09T10:13:08;97087.22;;;21.90
19102;BMP280;9683;49.028;12.064;2022-09-09T10:15:45;97089.78;;;22.01
19102;BMP280;9683;49.028;12.064;2022-09-09T10:18:41;97098.63;;;22.06
19102;BMP280;9683;49.028;12.064;2022-09-09T10:24:13;97087.78;;;22.20
19102;BMP280;9683;49.028;12.064;2022-09-09T10:26:49;97090.31;;;22.30
19102;BMP280;9683;49.028;12.064;2022-09-09T10:29:32;97088.78;;;22.37
19102;BMP280;9683;49.028;12.064;2022-09-09T10:32:20;97081.03;;;22.45
19102;BMP280;9683;49.028;12.064;2022-09-09T10:34:56;97079.03;;;22.50
19102;BMP280;9683;49.028;12.064;2022-09-09T10:37:36;97081.94;;;22.54
19102;BMP280;9683;49.028;12.064;2022-09-09T10:40:17;97082.22;;;22.52
19102;BMP280;9683;49.028;12.064;2022-09-09T10:42:47;97086.66;;;22.48
19102;BMP280;9683;49.028;12.064;2022-09-09T10:45:17;97084.25;;;22.47
19102;BMP280;9683;49.028;12.064;2022-09-09T10:48:06;97090.34;;;22.52
19102;BMP280;9683;49.028;12.064;2022-09-09T10:50:55;97090.88;;;22.54
19102;BMP280;9683;49.028;12.064;2022-09-09T10:53:35;97086.66;;;22.48
19102;BMP280;9683;49.028;12.064;2022-09-09T10:56:06;97082.03;;;22.49
19102;BMP280;9683;49.028;12.064;2022-09-09T10:58:39;97086.97;;;22.47
19102;BMP280;9683;49.028;12.064;2022-09-09T11:01:12;97084.75;;;22.35
19102;BMP280;9683;49.028;12.064;2022-09-09T11:03:43;97077.03;;;22.28
19102;BMP280;9683;49.028;12.064;2022-09-09T11:06:15;97083.88;;;22.26
19102;BMP280;9683;49.028;12.064;2022-09-09T11:08:43;97085.66;;;22.03
19102;BMP280;9683;49.028;12.064;2022-09-09T11:11:12;97096.22;;;22.05
19102;BMP280;9683;49.028;12.064;2022-09-09T11:13:45;97090.38;;;21.98
19102;BMP280;9683;49.028;12.064;2022-09-09T11:16:21;97075.91;;;22.02
19102;BMP280;9683;49.028;12.064;2022-09-09T11:18:50;97077.72;;;22.07
19102;BMP280;9683;49.028;12.064;2022-09-09T11:21:24;97073.22;;;22.02
19102;BMP280;9683;49.028;12.064;2022-09-09T11:23:55;97070.00;;;22.00
19102;BMP280;9683;49.028;12.064;2022-09-09T11:26:29;97071.50;;;22.06
19102;BMP280;9683;49.028;12.064;2022-09-09T11:29:08;97077.53;;;22.17
19102;BMP280;9683;49.028;12.064;2022-09-09T11:31:44;97068.41;;;22.26
19102;BMP280;9683;49.028;12.064;2022-09-09T11:34:21;97071.00;;;22.31
19102;BMP280;9683;49.028;12.064;2022-09-09T11:40:14;97067.34;;;22.50
19102;BMP280;9683;49.028;12.064;2022-09-09T11:42:42;97069.53;;;22.61
19102;BMP280;9683;49.028;12.064;2022-09-09T11:45:15;97076.69;;;22.71
19102;BMP280;9683;49.028;12.064;2022-09-09T11:47:52;97075.53;;;22.85
19102;BMP280;9683;49.028;12.064;2022-09-09T11:50:30;97068.59;;;22.93
19102;BMP280;9683;49.028;12.064;2022-09-09T11:55:47;97067.44;;;23.08
19102;BMP280;9683;49.028;12.064;2022-09-09T11:58:17;97065.59;;;23.17
19102;BMP280;9683;49.028;12.064;2022-09-09T12:00:46;97061.75;;;23.18
19102;BMP280;9683;49.028;12.064;2022-09-09T12:03:39;97066.69;;;23.16
19102;BMP280;9683;49.028;12.064;2022-09-09T12:06:15;97052.53;;;23.27
19102;BMP280;9683;49.028;12.064;2022-09-09T12:08:47;97050.88;;;23.40
19102;BMP280;9683;49.028;12.064;2022-09-09T12:11:24;97055.72;;;23.43
19102;BMP280;9683;49.028;12.064;2022-09-09T12:13:56;97047.63;;;23.52
19102;BMP280;9683;49.028;12.064;2022-09-09T12:16:32;97048.13;;;23.32
19102;BMP280;9683;49.028;12.064;2022-09-09T12:19:04;97052.38;;;23.46
19102;BMP280;9683;49.028;12.064;2022-09-09T12:21:35;97051.81;;;23.58
19102;BMP280;9683;49.028;12.064;2022-09-09T12:24:08;97054.41;;;23.63
19102;BMP280;9683;49.028;12.064;2022-09-09T12:26:37;97046.25;;;23.63
19102;BMP280;9683;49.028;12.064;2022-09-09T12:29:18;97051.44;;;23.51
19102;BMP280;9683;49.028;12.064;2022-09-09T12:31:54;97048.94;;;23.41
19102;BMP280;9683;49.028;12.064;2022-09-09T12:34:33;97054.28;;;23.23
19102;BMP280;9683;49.028;12.064;2022-09-09T12:37:06;97040.69;;;23.23
19102;BMP280;9683;49.028;12.064;2022-09-09T12:39:42;97039.75;;;23.28
19102;BMP280;9683;49.028;12.064;2022-09-09T12:42:16;97033.41;;;23.33
19102;BMP280;9683;49.028;12.064;2022-09-09T12:44:51;97032.00;;;23.35
19102;BMP280;9683;49.028;12.064;2022-09-09T12:47:19;97029.44;;;23.39
19102;BMP280;9683;49.028;12.064;2022-09-09T12:49:47;97029.53;;;23.25
19102;BMP280;9683;49.028;12.064;2022-09-09T12:52:20;97019.91;;;23.19
19102;BMP280;9683;49.028;12.064;2022-09-09T12:54:48;97025.53;;;23.00
19102;BMP280;9683;49.028;12.064;2022-09-09T12:57:16;97027.25;;;22.96
19102;BMP280;9683;49.028;12.064;2022-09-09T12:59:44;97021.44;;;22.89
19102;BMP280;9683;49.028;12.064;2022-09-09T13:02:18;97020.66;;;22.89
19102;BMP280;9683;49.028;12.064;2022-09-09T13:04:45;97007.88;;;22.89
19102;BMP280;9683;49.028;12.064;2022-09-09T13:07:12;97005.00;;;22.94
19102;BMP280;9683;49.028;12.064;2022-09-09T13:09:43;97004.91;;;22.99
19102;BMP280;9683;49.028;12.064;2022-09-09T13:12:14;97003.16;;;23.03
19102;BMP280;9683;49.028;12.064;2022-09-09T13:14:44;96990.28;;;23.09
19102;BMP280;9683;49.028;12.064;2022-09-09T13:17:18;96984.53;;;23.10
19102;BMP280;9683;49.028;12.064;2022-09-09T13:19:45;96985.94;;;23.08
19102;BMP280;9683;49.028;12.064;2022-09-09T13:22:12;96987.56;;;23.09
19102;BMP280;9683;49.028;12.064;2022-09-09T13:24:41;96971.94;;;23.14
19102;BMP280;9683;49.028;12.064;2022-09-09T13:27:24;96975.75;;;23.36
19102;BMP280;9683;49.028;12.064;2022-09-09T13:29:54;96960.66;;;23.52
19102;BMP280;9683;49.028;12.064;2022-09-09T13:32:23;96967.75;;;23.70
19102;BMP280;9683;49.028;12.064;2022-09-09T13:34:52;96961.25;;;23.88
19102;BMP280;9683;49.028;12.064;2022-09-09T13:37:24;96960.50;;;24.05
19102;BMP280;9683;49.028;12.064;2022-09-09T13:39:54;96965.03;;;24.18
19102;BMP280;9683;49.028;12.064;2022-09-09T13:42:26;96958.31;;;24.33
19102;BMP280;9683;49.028;12.064;2022-09-09T13:44:55;96955.28;;;24.43
19102;BMP280;9683;49.028;12.064;2022-09-09T13:47:28;96962.00;;;24.45
19102;BMP280;9683;49.028;12.064;2022-09-09T13:49:55;96966.47;;;24.41
19102;BMP280;9683;49.028;12.064;2022-09-09T13:52:22;96975.13;;;24.35
19102;BMP280;9683;49.028;12.064;2022-09-09T13:54:49;96960.88;;;24.29
19102;BMP280;9683;49.028;12.064;2022-09-09T13:57:19;96960.06;;;24.29
19102;BMP280;9683;49.028;12.064;2022-09-09T13:59:47;96954.63;;;24.37
19102;BMP280;9683;49.028;12.064;2022-09-09T14:02:14;96964.25;;;24.43
19102;BMP280;9683;49.028;12.064;2022-09-09T14:04:41;96953.69;;;24.42
19102;BMP280;9683;49.028;12.064;2022-09-09T14:07:11;96957.53;;;24.41
19102;BMP280;9683;49.028;12.064;2022-09-09T14:09:38;96948.88;;;24.47
19102;BMP280;9683;49.028;12.064;2022-09-09T14:12:05;96958.50;;;24.53
19102;BMP280;9683;49.028;12.064;2022-09-09T14:14:35;96953.84;;;24.62
19102;BMP280;9683;49.028;12.064;2022-09-09T14:17:02;96951.31;;;24.66
19102;BMP280;9683;49.028;12.064;2022-09-09T14:19:29;96941.03;;;24.80
19102;BMP280;9683;49.028;12.064;2022-09-09T14:21:56;96939.09;;;24.98
19102;BMP280;9683;49.028;12.064;2022-09-09T14:24:23;96934.41;;;25.16
19102;BMP280;9683;49.028;12.064;2022-09-09T14:26:50;96944.66;;;25.19
19102;BMP280;9683;49.028;12.064;2022-09-09T14:29:17;96955.53;;;25.27
19102;BMP280;9683;49.028;12.064;2022-09-09T14:31:45;96951.69;;;25.37
19102;BMP280;9683;49.028;12.064;2022-09-09T14:34:12;96942.19;;;25.34
19102;BMP280;9683;49.028;12.064;2022-09-09T14:36:40;96951.31;;;25.47